Pagina principale
METAR-TAF:

METAR-TAF

Aeroporti :

Caldwell, New Jersey, Stati Uniti

latitudine: 40-52-35N, longitudine: 074-16-59W, altezza: 52 m

Osservazione

Il bollettino è stato emesso 49 minuti fa, alle 06:53 UTC
Vento calmo
Temperature 14°C
Umidità 88%
Pressione 1018 hPa
Visibilità: 16.1 km
Cielo sereno

METAR: KCDW 240653Z AUTO 00000KT 10SM CLR 14/12 A3006 RMK AO2 SLP183 T01440122

Ora: 03:42 (07:42 UTC)


TAF: mancante

Osservazioni e previsioni meteorologiche di più di 4000 aeroporti (messaggi METAR e TAF).

Le stazioni disponibili sono rappresentate dai dischi gialli e rossi sulla carta.

Puntare il mouse per vedere il nome della stazione.

Clicca sopra per visualizzare le osservazioni e previsioni meteorologiche.

Per cambiare la mappa : fare clic sui pulsanti verdi con una croce nera per ingrandire, il pulsante verde con un trattino per diminuire, o sulla freccia verde per le mappe adiacenti.


METAR-TAF: